createdAt,value
2023-03-25T00:03:01.550Z,63.45
2023-03-25T00:08:04.642Z,67.11
2023-03-25T00:13:08.829Z,64.97
2023-03-25T00:18:11.543Z,67.97
2023-03-25T00:23:14.294Z,65.70
2023-03-25T00:28:18.433Z,65.45
2023-03-25T00:33:22.715Z,66.63
2023-03-25T00:38:33.742Z,65.50
2023-03-25T00:43:38.342Z,64.54
2023-03-25T00:48:42.000Z,62.03
2023-03-25T00:53:44.921Z,63.79
2023-03-25T00:58:49.212Z,63.35
2023-03-25T01:03:57.740Z,63.91
2023-03-25T01:09:02.427Z,63.08
2023-03-25T01:14:08.262Z,63.21
2023-03-25T01:19:11.360Z,61.69
2023-03-25T01:24:15.545Z,63.41
2023-03-25T01:29:21.493Z,61.99
2023-03-25T01:34:24.448Z,62.19
2023-03-25T01:39:28.518Z,64.30
2023-03-25T01:45:09.881Z,63.09
2023-03-25T01:50:15.510Z,63.59
2023-03-25T01:55:20.262Z,64.62
2023-03-25T02:00:23.451Z,65.01
2023-03-25T02:05:35.838Z,63.89
2023-03-25T02:10:38.675Z,63.57
2023-03-25T02:15:59.400Z,63.29
2023-03-25T02:21:46.016Z,62.84
2023-03-25T02:27:27.656Z,63.31
2023-03-25T02:32:48.223Z,63.65
2023-03-25T02:38:13.333Z,63.02
2023-03-25T02:43:24.404Z,65.90
2023-03-25T02:48:33.873Z,65.72
2023-03-25T02:53:41.020Z,61.37
2023-03-25T02:58:46.944Z,63.01
2023-03-25T03:03:49.888Z,61.55
2023-03-25T03:09:12.709Z,64.82
2023-03-25T03:14:34.090Z,66.28
2023-03-25T03:19:41.935Z,63.40
2023-03-25T03:24:51.304Z,63.33
2023-03-25T03:29:58.533Z,65.14
2023-03-25T03:35:05.704Z,64.10
2023-03-25T03:40:14.594Z,66.36
2023-03-25T03:45:23.245Z,65.29
2023-03-25T03:50:29.038Z,65.49
2023-03-25T03:55:39.116Z,64.18
2023-03-25T04:00:49.798Z,65.05
2023-03-25T04:05:58.777Z,64.23
2023-03-25T04:11:09.049Z,63.21
2023-03-25T04:16:12.464Z,63.78
2023-03-25T04:21:17.683Z,64.61
2023-03-25T04:26:21.931Z,63.25
2023-03-25T04:31:25.935Z,64.94
2023-03-25T04:36:29.743Z,66.15
2023-03-25T04:41:33.958Z,67.63
2023-03-25T04:46:37.832Z,69.82
2023-03-25T04:51:41.891Z,69.27
2023-03-25T04:56:47.587Z,70.17
2023-03-25T05:01:50.497Z,71.36
2023-03-25T05:06:53.532Z,71.44
2023-03-25T05:11:57.737Z,71.44
2023-03-25T05:17:00.598Z,71.80
2023-03-25T05:22:04.677Z,72.69
2023-03-25T05:27:08.962Z,74.14
2023-03-25T05:32:13.731Z,75.18
2023-03-25T05:37:16.593Z,70.68
2023-03-25T05:42:22.895Z,72.80
2023-03-25T05:47:28.800Z,70.53
2023-03-25T05:52:31.632Z,72.56
2023-03-25T05:57:36.305Z,70.25
2023-03-25T06:02:39.738Z,66.83
2023-03-25T06:07:43.705Z,69.25
2023-03-25T06:12:48.832Z,69.91
2023-03-25T06:17:51.580Z,69.18
2023-03-25T06:22:54.333Z,70.73
2023-03-25T06:28:03.245Z,69.15
2023-03-25T06:33:06.373Z,71.90
2023-03-25T06:38:10.760Z,72.70
2023-03-25T06:43:36.853Z,71.71
2023-03-25T06:49:05.388Z,69.90
2023-03-25T06:54:08.162Z,70.87
2023-03-25T06:59:12.291Z,71.33
2023-03-25T07:04:15.008Z,70.49
2023-03-25T07:09:17.896Z,71.04
2023-03-25T07:14:22.042Z,72.93
2023-03-25T07:19:24.879Z,70.61
2023-03-25T07:24:27.836Z,67.50
2023-03-25T07:29:32.033Z,67.63
2023-03-25T07:34:34.909Z,63.89
2023-03-25T07:39:37.977Z,62.58
2023-03-25T07:44:42.143Z,62.41
2023-03-25T07:49:46.781Z,64.12
2023-03-25T07:54:49.567Z,59.69
2023-03-25T07:59:53.809Z,57.32
2023-03-25T08:04:57.430Z,59.87
2023-03-25T08:10:00.370Z,59.75
2023-03-25T08:15:04.863Z,62.06
2023-03-25T08:20:09.206Z,56.79
2023-03-25T08:25:13.134Z,55.02
2023-03-25T08:30:17.661Z,55.56
2023-03-25T08:35:20.842Z,57.49
2023-03-25T08:40:23.621Z,59.67
2023-03-25T08:45:28.044Z,60.08
2023-03-25T08:50:31.505Z,62.34
2023-03-25T08:55:34.431Z,67.24
2023-03-25T09:00:38.977Z,65.34
2023-03-25T09:05:41.767Z,65.48
2023-03-25T09:10:44.665Z,66.00
2023-03-25T09:15:48.898Z,68.92
2023-03-25T09:20:52.006Z,63.85
2023-03-25T09:25:54.801Z,64.78
2023-03-25T09:30:59.122Z,62.56
2023-03-25T09:36:02.321Z,64.41
2023-03-25T09:41:17.693Z,62.70
2023-03-25T09:46:22.605Z,63.68
2023-03-25T09:51:29.244Z,61.49
2023-03-25T09:56:42.410Z,62.51
2023-03-25T10:01:57.662Z,58.45
2023-03-25T10:07:13.096Z,59.83
2023-03-25T10:12:33.433Z,58.36
2023-03-25T10:17:47.158Z,53.13
2023-03-25T10:23:04.237Z,51.88
2023-03-25T10:28:11.597Z,54.97
2023-03-25T10:33:24.594Z,52.59
2023-03-25T10:38:30.157Z,52.58
2023-03-25T10:43:36.120Z,51.46
2023-03-25T10:48:41.011Z,52.89
2023-03-25T10:53:47.850Z,52.02
2023-03-25T10:58:53.742Z,54.21
2023-03-25T11:04:00.917Z,55.91
2023-03-25T11:09:18.647Z,57.04
2023-03-25T11:14:24.381Z,62.10
2023-03-25T11:19:31.989Z,60.91
2023-03-25T11:24:41.002Z,59.57
2023-03-25T11:29:52.880Z,60.66
2023-03-25T11:34:57.058Z,57.59
2023-03-25T11:40:06.765Z,53.57
2023-03-25T11:45:21.422Z,50.89
2023-03-25T11:50:28.018Z,51.14
2023-03-25T11:55:33.425Z,54.17
2023-03-25T12:00:42.304Z,54.07
2023-03-25T12:05:59.470Z,55.21
2023-03-25T12:11:07.930Z,54.85
2023-03-25T12:16:24.732Z,54.38
2023-03-25T12:21:43.173Z,53.32
2023-03-25T12:26:55.804Z,53.01
2023-03-25T12:32:11.349Z,51.62
2023-03-25T12:37:26.529Z,52.90
2023-03-25T12:42:38.147Z,52.74
2023-03-25T12:47:44.140Z,55.54
2023-03-25T12:52:57.336Z,56.46
2023-03-25T12:58:24.272Z,56.79
2023-03-25T13:03:45.219Z,55.46
2023-03-25T13:08:55.810Z,55.02
2023-03-25T13:14:03.542Z,56.04
2023-03-25T13:19:11.129Z,60.20
2023-03-25T13:24:18.850Z,65.19
2023-03-25T13:29:29.024Z,69.64
2023-03-25T13:34:37.648Z,62.86
2023-03-25T13:39:55.397Z,58.88
2023-03-25T13:44:59.847Z,60.64
2023-03-25T13:50:08.458Z,59.34
2023-03-25T13:55:16.900Z,56.32
2023-03-25T14:00:44.932Z,55.90
2023-03-25T14:06:32.361Z,59.28
2023-03-25T14:11:41.516Z,63.12
2023-03-25T14:16:48.736Z,63.96
2023-03-25T14:21:53.054Z,63.60
2023-03-25T14:27:02.074Z,63.45
2023-03-25T14:32:26.729Z,64.86
2023-03-25T14:37:31.092Z,65.59
2023-03-25T14:42:59.564Z,66.50
2023-03-25T14:48:04.648Z,63.46
2023-03-25T14:53:14.331Z,59.04
2023-03-25T14:58:22.003Z,61.29
2023-03-25T15:03:34.157Z,61.94
2023-03-25T15:08:39.549Z,67.05
2023-03-25T15:13:52.632Z,66.83
2023-03-25T15:19:11.777Z,66.42
2023-03-25T15:24:21.734Z,68.23
2023-03-25T15:29:58.675Z,66.44
2023-03-25T15:35:30.558Z,65.38
2023-03-25T15:40:45.407Z,64.94
2023-03-25T15:46:05.677Z,65.51
2023-03-25T15:51:38.145Z,62.51
2023-03-25T15:56:45.575Z,63.01
2023-03-25T16:01:53.132Z,65.14
2023-03-25T16:06:58.329Z,63.48
2023-03-25T16:12:02.588Z,62.62
2023-03-25T16:17:08.872Z,60.63
2023-03-25T16:22:18.603Z,61.98
2023-03-25T16:27:24.928Z,64.99
2023-03-25T16:32:33.629Z,72.05
2023-03-25T16:37:36.943Z,76.96
2023-03-25T16:42:39.858Z,74.67
2023-03-25T16:47:46.679Z,72.71
2023-03-25T16:52:51.316Z,71.27
2023-03-25T16:57:54.385Z,71.90
2023-03-25T17:03:01.594Z,72.24
2023-03-25T17:08:10.413Z,72.81
2023-03-25T17:13:20.399Z,70.30
2023-03-25T17:18:31.411Z,70.00
2023-03-25T17:23:37.165Z,68.88
2023-03-25T17:28:42.965Z,69.15
2023-03-25T17:33:50.598Z,68.65
2023-03-25T17:38:55.883Z,74.21
2023-03-25T17:43:59.525Z,71.85
2023-03-25T17:49:14.935Z,71.25
2023-03-25T17:54:17.775Z,72.19
2023-03-25T17:59:22.556Z,72.69
2023-03-25T18:04:29.794Z,70.26
2023-03-25T18:09:32.720Z,71.69
2023-03-25T18:14:35.777Z,71.70
2023-03-25T18:19:40.793Z,70.03
2023-03-25T18:24:43.720Z,73.78
2023-03-25T18:29:47.593Z,76.33
2023-03-25T18:34:52.853Z,77.08
2023-03-25T18:40:00.059Z,80.07
2023-03-25T18:45:02.824Z,76.70
2023-03-25T18:50:19.169Z,77.37
2023-03-25T18:55:22.008Z,74.24
2023-03-25T19:00:28.895Z,74.35
2023-03-25T19:05:34.067Z,74.57
2023-03-25T19:10:37.234Z,79.06
2023-03-25T19:15:41.563Z,79.18
2023-03-25T19:20:48.257Z,78.00
2023-03-25T19:25:53.241Z,78.69
2023-03-25T19:31:01.332Z,81.27
2023-03-25T19:36:06.420Z,80.11
2023-03-25T19:41:10.876Z,77.55
2023-03-25T19:46:13.693Z,79.17
2023-03-25T19:51:17.865Z,76.50
2023-03-25T19:56:20.726Z,79.90
2023-03-25T20:01:24.245Z,78.50
2023-03-25T20:06:29.510Z,78.90
2023-03-25T20:11:33.509Z,79.63
2023-03-25T20:16:36.510Z,82.19
2023-03-25T20:21:40.840Z,79.10
2023-03-25T20:26:44.141Z,81.15
2023-03-25T20:31:47.530Z,79.83
2023-03-25T20:36:51.782Z,79.80
2023-03-25T20:41:54.613Z,81.72
2023-03-25T20:46:57.833Z,81.68
2023-03-25T20:52:04.455Z,81.07
2023-03-25T20:57:07.432Z,80.72
2023-03-25T21:02:10.944Z,78.53
2023-03-25T21:07:19.432Z,80.59
2023-03-25T21:12:29.730Z,80.60
2023-03-25T21:17:36.132Z,79.00
2023-03-25T21:22:44.228Z,78.81
2023-03-25T21:27:47.544Z,78.25
2023-03-25T21:32:52.943Z,80.31
2023-03-25T21:38:00.846Z,79.37
2023-03-25T21:43:04.181Z,76.30
2023-03-25T21:48:08.218Z,78.62
2023-03-25T21:53:13.181Z,79.83
2023-03-25T21:58:16.316Z,81.05
2023-03-25T22:03:19.186Z,81.48
2023-03-25T22:08:23.637Z,82.52
2023-03-25T22:13:26.429Z,81.03
2023-03-25T22:18:29.711Z,78.42
2023-03-25T22:23:33.815Z,78.97
2023-03-25T22:28:37.299Z,77.82
2023-03-25T22:33:41.043Z,79.69
2023-03-25T22:38:46.886Z,79.25
2023-03-25T22:43:49.829Z,79.23
2023-03-25T22:48:52.958Z,79.89
2023-03-25T22:53:58.623Z,82.79
2023-03-25T22:59:01.969Z,82.57
2023-03-25T23:04:05.379Z,80.38
2023-03-25T23:09:11.206Z,80.74
2023-03-25T23:14:13.968Z,82.56
2023-03-25T23:19:18.524Z,80.71
2023-03-25T23:24:38.003Z,80.49
2023-03-25T23:29:47.607Z,80.65
2023-03-25T23:34:55.829Z,80.67
2023-03-25T23:40:00.134Z,79.43
2023-03-25T23:45:03.339Z,82.79
2023-03-25T23:50:09.153Z,78.44
2023-03-25T23:55:16.236Z,78.61
